Terminal Aerodrome Forecast
Issued by NWS

Home | Current Version | Previous Version | Text Only | Print | Product List | Glossary On
Versions: 1 2 3 4 5 6 7 8 9 10 11 12 13 14 15 16 17 18
000
FTUS43 KMQT 231100
TAFIWD
TAF
KIWD 231133Z 2312/2412 18008KT 3SM -DZ BR OVC004
     FM231500 19008KT 3SM -DZ BR OVC004
     FM240100 VRB03KT 1SM -RA BR OVC003
     FM240900 33012KT 1SM -SN BR OVC003
      AMD LTD TO CLD VIS AND WIND=

USA.gov is the U.S. government's official web portal to all federal, state and local government web resources and services.